Aérodrome :
LOGIN :

S'inscrire | Disclaimer

   EN    FR    IT 

 










Légende :    VFR   VFR Marginal   IFR   IFR Intensif   IFR Très Intensif
Visi : 
Plafond : 
>= 8 km
>= 3000ft
5 à 8 km
1000 à 3000 ft
1500m à 5 km
500 à 1000 ft
800 à 1500m
200 à 500 ft
< 800m
< 200 ft
Symboles :   Orages  Brouillard  Fortes neiges  Fortes précipitations  Vent > 20 kt
SIGMETs :   Divers  Orages  Givrage  Turbulence  Onde Orograph.  Cendres Volcan.






- Altitude de l'aérodrome : 26 ft
- Code IATA : GLA


EGPF - Glasgow

DERNIER METAR :
  • 020720Z AUTO 24018KT 9999 BKN022 BKN034 OVC042 08/05 Q1009

METARs EXPIRÉS :
  • 020650Z AUTO 25016KT 9999 SCT021 BKN027 BKN034 08/05 Q1009
  • 020620Z AUTO 25018KT 6000 -RA BKN014 BKN021 OVC038 08/07 Q1009
  • 020550Z AUTO 26017KT 9999 -RA SCT014 BKN021 BKN025 09/07 Q1009
  • 020520Z AUTO 25014KT 9000 -RA BKN014 BKN022 BKN029 08/07 Q1009
  • 020450Z AUTO 26015KT 8000 -RA BKN014/// BKN027/// OVC046/// //////TCU 08/07 Q1010

TAF TAF EGPF
Valide du 02 à 06h jusqu'au 03 à 06h UTC


020455Z 0206/0306 25015KT 9999 SCT025
TEMPO 0206/0218 28020G30KT
PROB30
TEMPO 0206/0212 6000 SHRA BKN014
PROB30
TEMPO 0212/0306 4000 SHSN BKN010
ATIS : +44 141 887 7449



MET'MAP, la Météo Aéronautique d'un coup d'oeil ! - Copyright ORBIFLY Décembre 2007 - Disclaimer

ORBIFLY MET'MAP TEAM :

Programmation & Développement : Alexandra Zaïnal
Sur une idée originale de : Baudouin d'Aumeries
Assistance à la programmation : Marc-Olivier Méhu
Soutien technique & logistique : Manuel Goepfert

Contact : metmap@orbifly.com




SOURCES & CREDITS :

   NOAA